sensor_id;sensor_type;location;lat;lon;timestamp;P1;durP1;ratioP1;P2;durP2;ratioP2
44985;SDS011;30721;49.380;7.736;2022-12-18T00:01:01;33.05;;;12.63;;
44985;SDS011;30721;49.380;7.736;2022-12-18T00:03:32;34.90;;;12.32;;
44985;SDS011;30721;49.380;7.736;2022-12-18T00:06:00;25.38;;;11.05;;
44985;SDS011;30721;49.380;7.736;2022-12-18T00:08:26;32.25;;;12.38;;
44985;SDS011;30721;49.380;7.736;2022-12-18T00:10:51;25.27;;;10.45;;
44985;SDS011;30721;49.380;7.736;2022-12-18T00:13:17;30.08;;;11.10;;
44985;SDS011;30721;49.380;7.736;2022-12-18T00:15:42;26.60;;;11.00;;
44985;SDS011;30721;49.380;7.736;2022-12-18T00:18:07;28.35;;;12.50;;
44985;SDS011;30721;49.380;7.736;2022-12-18T00:20:37;29.73;;;10.98;;
44985;SDS011;30721;49.380;7.736;2022-12-18T00:23:03;26.05;;;10.57;;
44985;SDS011;30721;49.380;7.736;2022-12-18T00:25:29;31.77;;;11.70;;
44985;SDS011;30721;49.380;7.736;2022-12-18T00:27:57;25.27;;;10.68;;
44985;SDS011;30721;49.380;7.736;2022-12-18T00:30:23;32.22;;;11.40;;
44985;SDS011;30721;49.380;7.736;2022-12-18T00:32:48;22.33;;;10.20;;
44985;SDS011;30721;49.380;7.736;2022-12-18T00:35:13;29.48;;;10.93;;
44985;SDS011;30721;49.380;7.736;2022-12-18T00:37:39;28.40;;;10.68;;
44985;SDS011;30721;49.380;7.736;2022-12-18T00:40:04;32.47;;;11.23;;
44985;SDS011;30721;49.380;7.736;2022-12-18T00:42:30;27.55;;;9.27;;
44985;SDS011;30721;49.380;7.736;2022-12-18T00:45:14;26.85;;;10.70;;
44985;SDS011;30721;49.380;7.736;2022-12-18T00:47:39;29.85;;;11.65;;
44985;SDS011;30721;49.380;7.736;2022-12-18T00:50:05;24.10;;;11.15;;
44985;SDS011;30721;49.380;7.736;2022-12-18T00:52:31;32.45;;;11.25;;
44985;SDS011;30721;49.380;7.736;2022-12-18T00:54:56;34.72;;;11.93;;
44985;SDS011;30721;49.380;7.736;2022-12-18T00:57:22;33.80;;;12.85;;
44985;SDS011;30721;49.380;7.736;2022-12-18T00:59:47;26.40;;;11.43;;
44985;SDS011;30721;49.380;7.736;2022-12-18T01:02:12;33.75;;;11.82;;
44985;SDS011;30721;49.380;7.736;2022-12-18T01:04:38;27.05;;;12.00;;
44985;SDS011;30721;49.380;7.736;2022-12-18T01:07:03;25.50;;;10.88;;
44985;SDS011;30721;49.380;7.736;2022-12-18T01:09:28;26.25;;;11.52;;
44985;SDS011;30721;49.380;7.736;2022-12-18T01:11:54;27.25;;;10.63;;
44985;SDS011;30721;49.380;7.736;2022-12-18T01:14:19;32.85;;;10.15;;
44985;SDS011;30721;49.380;7.736;2022-12-18T01:16:44;20.70;;;9.68;;
44985;SDS011;30721;49.380;7.736;2022-12-18T01:19:10;29.48;;;10.38;;
44985;SDS011;30721;49.380;7.736;2022-12-18T01:21:35;22.65;;;9.68;;
44985;SDS011;30721;49.380;7.736;2022-12-18T01:24:01;27.13;;;10.25;;
44985;SDS011;30721;49.380;7.736;2022-12-18T01:26:26;27.08;;;10.52;;
44985;SDS011;30721;49.380;7.736;2022-12-18T01:28:55;30.33;;;10.95;;
44985;SDS011;30721;49.380;7.736;2022-12-18T01:31:25;24.27;;;9.60;;
44985;SDS011;30721;49.380;7.736;2022-12-18T01:33:52;28.08;;;11.50;;
44985;SDS011;30721;49.380;7.736;2022-12-18T01:36:25;22.30;;;10.65;;
44985;SDS011;30721;49.380;7.736;2022-12-18T01:38:52;24.40;;;9.80;;
44985;SDS011;30721;49.380;7.736;2022-12-18T01:41:20;27.80;;;10.43;;
44985;SDS011;30721;49.380;7.736;2022-12-18T01:43:49;27.20;;;9.73;;
44985;SDS011;30721;49.380;7.736;2022-12-18T01:46:20;24.73;;;10.07;;
44985;SDS011;30721;49.380;7.736;2022-12-18T01:49:06;28.42;;;10.70;;
44985;SDS011;30721;49.380;7.736;2022-12-18T01:51:32;29.27;;;10.43;;
44985;SDS011;30721;49.380;7.736;2022-12-18T01:53:57;25.15;;;10.25;;
44985;SDS011;30721;49.380;7.736;2022-12-18T01:56:24;25.02;;;9.80;;
44985;SDS011;30721;49.380;7.736;2022-12-18T02:01:23;20.52;;;9.82;;
44985;SDS011;30721;49.380;7.736;2022-12-18T02:03:49;26.10;;;9.95;;
44985;SDS011;30721;49.380;7.736;2022-12-18T02:06:23;27.98;;;9.60;;
44985;SDS011;30721;49.380;7.736;2022-12-18T02:19:15;22.60;;;8.27;;
44985;SDS011;30721;49.380;7.736;2022-12-18T02:22:00;28.27;;;9.82;;
44985;SDS011;30721;49.380;7.736;2022-12-18T02:27:19;24.88;;;10.15;;
44985;SDS011;30721;49.380;7.736;2022-12-18T02:29:51;27.73;;;10.98;;
44985;SDS011;30721;49.380;7.736;2022-12-18T02:32:22;30.08;;;11.02;;
44985;SDS011;30721;49.380;7.736;2022-12-18T02:34:51;24.00;;;10.83;;
44985;SDS011;30721;49.380;7.736;2022-12-18T02:37:18;30.55;;;11.80;;
44985;SDS011;30721;49.380;7.736;2022-12-18T02:39:44;25.92;;;10.38;;
44985;SDS011;30721;49.380;7.736;2022-12-18T02:42:12;32.08;;;11.88;;
44985;SDS011;30721;49.380;7.736;2022-12-18T02:44:48;23.63;;;11.07;;
44985;SDS011;30721;49.380;7.736;2022-12-18T02:47:15;31.27;;;10.52;;
44985;SDS011;30721;49.380;7.736;2022-12-18T03:00:24;28.60;;;10.27;;
44985;SDS011;30721;49.380;7.736;2022-12-18T03:02:59;29.15;;;9.35;;
44985;SDS011;30721;49.380;7.736;2022-12-18T03:05:36;22.02;;;9.85;;
44985;SDS011;30721;49.380;7.736;2022-12-18T03:08:16;30.33;;;11.05;;
44985;SDS011;30721;49.380;7.736;2022-12-18T03:11:03;32.53;;;10.90;;
44985;SDS011;30721;49.380;7.736;2022-12-18T03:13:34;31.10;;;11.52;;
44985;SDS011;30721;49.380;7.736;2022-12-18T03:16:01;28.27;;;11.15;;
44985;SDS011;30721;49.380;7.736;2022-12-18T03:21:09;29.90;;;11.05;;
44985;SDS011;30721;49.380;7.736;2022-12-18T03:23:38;29.15;;;11.02;;
44985;SDS011;30721;49.380;7.736;2022-12-18T03:26:19;30.27;;;10.77;;
44985;SDS011;30721;49.380;7.736;2022-12-18T03:28:51;30.88;;;12.00;;
44985;SDS011;30721;49.380;7.736;2022-12-18T03:31:18;34.17;;;11.15;;
44985;SDS011;30721;49.380;7.736;2022-12-18T03:34:08;29.83;;;10.85;;
44985;SDS011;30721;49.380;7.736;2022-12-18T03:36:33;27.75;;;9.82;;
44985;SDS011;30721;49.380;7.736;2022-12-18T03:38:59;30.30;;;12.45;;
44985;SDS011;30721;49.380;7.736;2022-12-18T03:41:29;29.75;;;10.68;;
44985;SDS011;30721;49.380;7.736;2022-12-18T03:44:03;34.45;;;11.65;;
44985;SDS011;30721;49.380;7.736;2022-12-18T03:47:09;23.55;;;9.48;;
44985;SDS011;30721;49.380;7.736;2022-12-18T03:50:18;28.80;;;9.85;;
44985;SDS011;30721;49.380;7.736;2022-12-18T03:53:08;27.80;;;10.80;;
44985;SDS011;30721;49.380;7.736;2022-12-18T03:58:19;27.40;;;9.68;;
44985;SDS011;30721;49.380;7.736;2022-12-18T04:00:46;29.27;;;10.35;;
44985;SDS011;30721;49.380;7.736;2022-12-18T04:03:13;32.15;;;11.18;;
44985;SDS011;30721;49.380;7.736;2022-12-18T04:05:38;30.52;;;11.27;;
44985;SDS011;30721;49.380;7.736;2022-12-18T04:08:06;23.05;;;9.82;;
44985;SDS011;30721;49.380;7.736;2022-12-18T04:10:31;23.75;;;10.13;;
44985;SDS011;30721;49.380;7.736;2022-12-18T04:12:57;34.35;;;11.95;;
44985;SDS011;30721;49.380;7.736;2022-12-18T04:15:23;27.88;;;10.63;;
44985;SDS011;30721;49.380;7.736;2022-12-18T04:17:49;36.83;;;11.93;;
44985;SDS011;30721;49.380;7.736;2022-12-18T04:20:15;33.40;;;14.25;;
44985;SDS011;30721;49.380;7.736;2022-12-18T04:22:40;26.67;;;10.50;;
44985;SDS011;30721;49.380;7.736;2022-12-18T04:25:06;29.05;;;12.10;;
44985;SDS011;30721;49.380;7.736;2022-12-18T04:27:32;28.40;;;12.15;;
44985;SDS011;30721;49.380;7.736;2022-12-18T04:29:57;28.77;;;10.88;;
44985;SDS011;30721;49.380;7.736;2022-12-18T04:32:22;28.55;;;11.48;;
44985;SDS011;30721;49.380;7.736;2022-12-18T04:34:48;22.52;;;10.15;;
44985;SDS011;30721;49.380;7.736;2022-12-18T04:37:13;26.90;;;11.13;;
44985;SDS011;30721;49.380;7.736;2022-12-18T04:39:38;29.77;;;10.23;;
44985;SDS011;30721;49.380;7.736;2022-12-18T04:42:04;30.63;;;11.57;;
44985;SDS011;30721;49.380;7.736;2022-12-18T04:44:29;30.80;;;14.40;;
44985;SDS011;30721;49.380;7.736;2022-12-18T04:46:55;32.60;;;11.57;;
44985;SDS011;30721;49.380;7.736;2022-12-18T04:49:20;27.73;;;11.40;;
44985;SDS011;30721;49.380;7.736;2022-12-18T04:51:46;28.50;;;11.57;;
44985;SDS011;30721;49.380;7.736;2022-12-18T04:54:11;31.83;;;12.20;;
44985;SDS011;30721;49.380;7.736;2022-12-18T04:56:36;28.63;;;12.32;;
44985;SDS011;30721;49.380;7.736;2022-12-18T04:59:02;30.77;;;10.95;;
44985;SDS011;30721;49.380;7.736;2022-12-18T05:01:27;34.95;;;12.48;;
44985;SDS011;30721;49.380;7.736;2022-12-18T05:03:52;26.88;;;11.52;;
44985;SDS011;30721;49.380;7.736;2022-12-18T05:06:18;32.50;;;12.27;;
44985;SDS011;30721;49.380;7.736;2022-12-18T05:08:43;28.15;;;11.10;;
44985;SDS011;30721;49.380;7.736;2022-12-18T05:11:10;31.52;;;11.43;;
44985;SDS011;30721;49.380;7.736;2022-12-18T05:13:37;32.53;;;11.50;;
44985;SDS011;30721;49.380;7.736;2022-12-18T05:16:03;28.60;;;11.18;;
44985;SDS011;30721;49.380;7.736;2022-12-18T05:18:29;30.50;;;9.27;;
44985;SDS011;30721;49.380;7.736;2022-12-18T05:20:54;24.35;;;10.23;;
44985;SDS011;30721;49.380;7.736;2022-12-18T05:23:20;27.88;;;10.73;;
44985;SDS011;30721;49.380;7.736;2022-12-18T05:25:47;28.88;;;11.35;;
44985;SDS011;30721;49.380;7.736;2022-12-18T05:28:15;29.15;;;11.30;;
44985;SDS011;30721;49.380;7.736;2022-12-18T05:30:41;30.33;;;10.40;;
44985;SDS011;30721;49.380;7.736;2022-12-18T05:33:06;32.95;;;10.45;;
44985;SDS011;30721;49.380;7.736;2022-12-18T05:35:31;35.63;;;11.10;;
44985;SDS011;30721;49.380;7.736;2022-12-18T05:37:57;27.27;;;10.60;;
44985;SDS011;30721;49.380;7.736;2022-12-18T05:40:22;28.42;;;10.05;;
44985;SDS011;30721;49.380;7.736;2022-12-18T05:42:47;22.73;;;9.20;;
44985;SDS011;30721;49.380;7.736;2022-12-18T05:45:13;30.55;;;10.57;;
44985;SDS011;30721;49.380;7.736;2022-12-18T05:47:38;25.83;;;9.10;;
44985;SDS011;30721;49.380;7.736;2022-12-18T05:50:04;30.80;;;9.65;;
44985;SDS011;30721;49.380;7.736;2022-12-18T05:52:30;28.08;;;10.98;;
44985;SDS011;30721;49.380;7.736;2022-12-18T05:54:55;27.45;;;10.00;;
44985;SDS011;30721;49.380;7.736;2022-12-18T05:57:21;27.60;;;10.10;;
44985;SDS011;30721;49.380;7.736;2022-12-18T05:59:46;32.42;;;12.27;;
44985;SDS011;30721;49.380;7.736;2022-12-18T06:02:11;26.42;;;11.65;;
44985;SDS011;30721;49.380;7.736;2022-12-18T06:04:37;33.10;;;12.60;;
44985;SDS011;30721;49.380;7.736;2022-12-18T06:07:02;24.90;;;10.07;;
44985;SDS011;30721;49.380;7.736;2022-12-18T06:09:29;25.52;;;11.02;;
44985;SDS011;30721;49.380;7.736;2022-12-18T06:11:54;30.33;;;11.50;;
44985;SDS011;30721;49.380;7.736;2022-12-18T06:14:19;32.80;;;12.25;;
44985;SDS011;30721;49.380;7.736;2022-12-18T06:16:45;35.40;;;12.98;;
44985;SDS011;30721;49.380;7.736;2022-12-18T06:19:13;28.63;;;11.75;;
44985;SDS011;30721;49.380;7.736;2022-12-18T06:21:40;27.95;;;13.38;;
44985;SDS011;30721;49.380;7.736;2022-12-18T06:24:05;29.35;;;12.70;;
44985;SDS011;30721;49.380;7.736;2022-12-18T06:26:31;37.03;;;11.88;;
44985;SDS011;30721;49.380;7.736;2022-12-18T06:28:56;31.60;;;12.52;;
44985;SDS011;30721;49.380;7.736;2022-12-18T06:31:21;25.52;;;10.70;;
44985;SDS011;30721;49.380;7.736;2022-12-18T06:33:47;38.58;;;13.55;;
44985;SDS011;30721;49.380;7.736;2022-12-18T06:36:12;33.55;;;12.77;;
44985;SDS011;30721;49.380;7.736;2022-12-18T06:38:39;32.13;;;13.70;;
44985;SDS011;30721;49.380;7.736;2022-12-18T06:41:10;35.03;;;12.90;;
44985;SDS011;30721;49.380;7.736;2022-12-18T06:43:37;37.47;;;13.57;;
44985;SDS011;30721;49.380;7.736;2022-12-18T06:46:03;32.58;;;10.93;;
44985;SDS011;30721;49.380;7.736;2022-12-18T06:48:29;31.85;;;13.13;;
44985;SDS011;30721;49.380;7.736;2022-12-18T06:50:54;25.08;;;10.25;;
44985;SDS011;30721;49.380;7.736;2022-12-18T06:53:20;31.05;;;11.25;;
44985;SDS011;30721;49.380;7.736;2022-12-18T06:55:45;34.50;;;12.10;;
44985;SDS011;30721;49.380;7.736;2022-12-18T06:58:10;35.60;;;13.23;;
44985;SDS011;30721;49.380;7.736;2022-12-18T07:00:36;30.30;;;11.18;;
44985;SDS011;30721;49.380;7.736;2022-12-18T07:03:01;29.10;;;11.27;;
44985;SDS011;30721;49.380;7.736;2022-12-18T07:05:27;31.00;;;14.77;;
44985;SDS011;30721;49.380;7.736;2022-12-18T07:07:52;40.35;;;18.48;;
44985;SDS011;30721;49.380;7.736;2022-12-18T07:10:17;32.22;;;16.25;;
44985;SDS011;30721;49.380;7.736;2022-12-18T07:12:43;35.75;;;14.65;;
44985;SDS011;30721;49.380;7.736;2022-12-18T07:15:08;47.42;;;18.70;;
44985;SDS011;30721;49.380;7.736;2022-12-18T07:17:34;35.10;;;15.07;;
44985;SDS011;30721;49.380;7.736;2022-12-18T07:19:59;34.70;;;12.60;;
44985;SDS011;30721;49.380;7.736;2022-12-18T07:22:25;39.88;;;18.45;;
44985;SDS011;30721;49.380;7.736;2022-12-18T07:24:51;35.33;;;16.48;;
44985;SDS011;30721;49.380;7.736;2022-12-18T07:27:16;37.30;;;15.55;;
44985;SDS011;30721;49.380;7.736;2022-12-18T07:29:41;40.63;;;15.95;;
44985;SDS011;30721;49.380;7.736;2022-12-18T07:32:07;35.08;;;14.05;;
44985;SDS011;30721;49.380;7.736;2022-12-18T07:34:32;41.33;;;16.63;;
44985;SDS011;30721;49.380;7.736;2022-12-18T07:36:58;48.78;;;20.13;;
44985;SDS011;30721;49.380;7.736;2022-12-18T07:39:23;48.92;;;19.55;;
44985;SDS011;30721;49.380;7.736;2022-12-18T07:41:48;49.63;;;18.55;;
44985;SDS011;30721;49.380;7.736;2022-12-18T07:44:34;37.40;;;14.80;;
44985;SDS011;30721;49.380;7.736;2022-12-18T07:46:59;34.80;;;15.70;;
44985;SDS011;30721;49.380;7.736;2022-12-18T07:49:24;46.63;;;18.65;;
44985;SDS011;30721;49.380;7.736;2022-12-18T07:51:50;33.72;;;14.25;;
44985;SDS011;30721;49.380;7.736;2022-12-18T07:54:15;32.47;;;13.23;;
44985;SDS011;30721;49.380;7.736;2022-12-18T07:56:40;43.88;;;16.65;;
44985;SDS011;30721;49.380;7.736;2022-12-18T07:59:07;34.00;;;14.10;;
44985;SDS011;30721;49.380;7.736;2022-12-18T08:01:32;29.08;;;11.77;;
44985;SDS011;30721;49.380;7.736;2022-12-18T08:03:58;24.83;;;11.13;;
44985;SDS011;30721;49.380;7.736;2022-12-18T08:06:23;30.15;;;11.05;;
44985;SDS011;30721;49.380;7.736;2022-12-18T08:08:50;28.15;;;11.13;;
44985;SDS011;30721;49.380;7.736;2022-12-18T08:11:16;25.48;;;10.75;;
44985;SDS011;30721;49.380;7.736;2022-12-18T08:13:42;35.83;;;13.98;;
44985;SDS011;30721;49.380;7.736;2022-12-18T08:16:07;33.95;;;14.50;;
44985;SDS011;30721;49.380;7.736;2022-12-18T08:18:33;31.20;;;13.02;;
44985;SDS011;30721;49.380;7.736;2022-12-18T08:21:13;34.58;;;15.68;;
44985;SDS011;30721;49.380;7.736;2022-12-18T08:23:40;31.73;;;15.38;;
44985;SDS011;30721;49.380;7.736;2022-12-18T08:26:06;30.55;;;12.30;;
44985;SDS011;30721;49.380;7.736;2022-12-18T08:28:32;30.00;;;12.18;;
44985;SDS011;30721;49.380;7.736;2022-12-18T08:30:57;30.70;;;12.90;;
44985;SDS011;30721;49.380;7.736;2022-12-18T08:33:23;39.22;;;16.80;;
44985;SDS011;30721;49.380;7.736;2022-12-18T08:35:48;40.08;;;16.55;;
44985;SDS011;30721;49.380;7.736;2022-12-18T08:38:13;49.53;;;21.83;;
44985;SDS011;30721;49.380;7.736;2022-12-18T08:40:39;83.50;;;33.78;;
44985;SDS011;30721;49.380;7.736;2022-12-18T08:43:04;48.20;;;21.02;;
44985;SDS011;30721;49.380;7.736;2022-12-18T08:45:48;39.15;;;15.50;;
44985;SDS011;30721;49.380;7.736;2022-12-18T08:48:13;62.28;;;25.50;;
44985;SDS011;30721;49.380;7.736;2022-12-18T08:50:40;101.70;;;38.03;;
44985;SDS011;30721;49.380;7.736;2022-12-18T08:53:05;63.53;;;25.23;;
44985;SDS011;30721;49.380;7.736;2022-12-18T08:55:31;92.72;;;33.00;;
44985;SDS011;30721;49.380;7.736;2022-12-18T08:57:56;55.05;;;21.02;;
44985;SDS011;30721;49.380;7.736;2022-12-18T09:00:21;35.08;;;15.27;;
44985;SDS011;30721;49.380;7.736;2022-12-18T09:02:47;37.17;;;15.20;;
44985;SDS011;30721;49.380;7.736;2022-12-18T09:05:12;37.17;;;16.42;;
44985;SDS011;30721;49.380;7.736;2022-12-18T09:07:37;42.42;;;17.30;;
44985;SDS011;30721;49.380;7.736;2022-12-18T09:10:03;42.17;;;17.40;;
44985;SDS011;30721;49.380;7.736;2022-12-18T09:12:29;43.10;;;15.98;;
44985;SDS011;30721;49.380;7.736;2022-12-18T09:14:54;35.38;;;15.27;;
44985;SDS011;30721;49.380;7.736;2022-12-18T09:17:21;44.60;;;16.25;;
44985;SDS011;30721;49.380;7.736;2022-12-18T09:19:46;31.88;;;13.02;;
44985;SDS011;30721;49.380;7.736;2022-12-18T09:22:11;39.42;;;15.68;;
44985;SDS011;30721;49.380;7.736;2022-12-18T09:24:37;36.70;;;14.27;;
44985;SDS011;30721;49.380;7.736;2022-12-18T09:27:02;32.75;;;13.25;;
44985;SDS011;30721;49.380;7.736;2022-12-18T09:29:28;32.63;;;11.68;;
44985;SDS011;30721;49.380;7.736;2022-12-18T09:31:53;30.08;;;11.93;;
44985;SDS011;30721;49.380;7.736;2022-12-18T09:34:19;33.70;;;12.23;;
44985;SDS011;30721;49.380;7.736;2022-12-18T09:36:46;27.65;;;11.55;;
44985;SDS011;30721;49.380;7.736;2022-12-18T09:39:12;27.65;;;12.30;;
44985;SDS011;30721;49.380;7.736;2022-12-18T09:41:39;30.90;;;12.23;;
44985;SDS011;30721;49.380;7.736;2022-12-18T09:50:15;27.65;;;10.93;;
44985;SDS011;30721;49.380;7.736;2022-12-18T09:52:49;27.92;;;10.82;;
44985;SDS011;30721;49.380;7.736;2022-12-18T09:57:50;32.53;;;14.25;;
44985;SDS011;30721;49.380;7.736;2022-12-18T10:00:19;33.85;;;14.68;;
44985;SDS011;30721;49.380;7.736;2022-12-18T10:02:46;34.55;;;14.35;;
44985;SDS011;30721;49.380;7.736;2022-12-18T10:05:20;38.50;;;16.63;;
44985;SDS011;30721;49.380;7.736;2022-12-18T10:10:53;39.80;;;18.08;;
44985;SDS011;30721;49.380;7.736;2022-12-18T10:13:37;36.40;;;16.55;;
44985;SDS011;30721;49.380;7.736;2022-12-18T10:22:03;35.55;;;15.95;;
44985;SDS011;30721;49.380;7.736;2022-12-18T10:27:25;41.65;;;16.92;;
44985;SDS011;30721;49.380;7.736;2022-12-18T10:29:51;36.75;;;16.85;;
44985;SDS011;30721;49.380;7.736;2022-12-18T10:32:27;31.60;;;15.15;;
44985;SDS011;30721;49.380;7.736;2022-12-18T10:34:55;35.67;;;15.15;;
44985;SDS011;30721;49.380;7.736;2022-12-18T10:37:22;32.97;;;14.82;;
44985;SDS011;30721;49.380;7.736;2022-12-18T10:43:03;36.22;;;16.70;;
44985;SDS011;30721;49.380;7.736;2022-12-18T10:45:30;35.63;;;15.85;;
44985;SDS011;30721;49.380;7.736;2022-12-18T10:47:55;36.50;;;16.75;;
44985;SDS011;30721;49.380;7.736;2022-12-18T10:52:59;46.90;;;19.95;;
44985;SDS011;30721;49.380;7.736;2022-12-18T10:55:47;61.03;;;25.95;;
44985;SDS011;30721;49.380;7.736;2022-12-18T11:08:34;55.00;;;24.13;;
44985;SDS011;30721;49.380;7.736;2022-12-18T11:11:00;63.95;;;26.65;;
44985;SDS011;30721;49.380;7.736;2022-12-18T11:13:26;73.05;;;27.67;;
44985;SDS011;30721;49.380;7.736;2022-12-18T11:15:53;85.25;;;32.00;;
44985;SDS011;30721;49.380;7.736;2022-12-18T11:21:11;53.10;;;21.40;;
44985;SDS011;30721;49.380;7.736;2022-12-18T11:23:43;51.38;;;22.35;;
44985;SDS011;30721;49.380;7.736;2022-12-18T11:26:19;38.90;;;17.48;;
44985;SDS011;30721;49.380;7.736;2022-12-18T11:28:47;41.38;;;17.50;;
44985;SDS011;30721;49.380;7.736;2022-12-18T11:33:41;36.58;;;16.65;;
44985;SDS011;30721;49.380;7.736;2022-12-18T11:36:08;36.35;;;15.38;;
44985;SDS011;30721;49.380;7.736;2022-12-18T11:38:38;35.03;;;16.60;;
44985;SDS011;30721;49.380;7.736;2022-12-18T11:41:07;33.30;;;15.88;;
44985;SDS011;30721;49.380;7.736;2022-12-18T11:43:42;32.40;;;15.63;;
44985;SDS011;30721;49.380;7.736;2022-12-18T11:46:23;31.88;;;14.88;;
44985;SDS011;30721;49.380;7.736;2022-12-18T11:51:45;34.70;;;15.45;;
44985;SDS011;30721;49.380;7.736;2022-12-18T11:54:14;33.83;;;16.23;;
44985;SDS011;30721;49.380;7.736;2022-12-18T11:56:44;35.10;;;16.67;;
44985;SDS011;30721;49.380;7.736;2022-12-18T11:59:33;32.42;;;14.32;;
44985;SDS011;30721;49.380;7.736;2022-12-18T12:04:50;36.13;;;16.73;;
44985;SDS011;30721;49.380;7.736;2022-12-18T12:18:43;31.73;;;15.93;;
44985;SDS011;30721;49.380;7.736;2022-12-18T12:21:40;35.90;;;16.20;;
44985;SDS011;30721;49.380;7.736;2022-12-18T12:38:51;31.83;;;15.88;;
44985;SDS011;30721;49.380;7.736;2022-12-18T12:41:38;33.22;;;17.00;;
44985;SDS011;30721;49.380;7.736;2022-12-18T12:44:28;35.05;;;16.98;;
44985;SDS011;30721;49.380;7.736;2022-12-18T12:46:56;30.92;;;15.05;;
44985;SDS011;30721;49.380;7.736;2022-12-18T12:49:26;33.60;;;16.55;;
44985;SDS011;30721;49.380;7.736;2022-12-18T12:51:56;35.67;;;16.98;;
44985;SDS011;30721;49.380;7.736;2022-12-18T12:54:25;31.85;;;14.93;;
44985;SDS011;30721;49.380;7.736;2022-12-18T12:57:11;34.55;;;16.13;;
44985;SDS011;30721;49.380;7.736;2022-12-18T13:02:23;58.53;;;23.63;;
44985;SDS011;30721;49.380;7.736;2022-12-18T13:07:41;34.72;;;17.30;;
44985;SDS011;30721;49.380;7.736;2022-12-18T13:20:36;34.63;;;15.77;;
44985;SDS011;30721;49.380;7.736;2022-12-18T13:23:19;35.53;;;19.08;;
44985;SDS011;30721;49.380;7.736;2022-12-18T13:25:48;26.53;;;13.83;;
44985;SDS011;30721;49.380;7.736;2022-12-18T13:30:51;36.83;;;18.52;;
44985;SDS011;30721;49.380;7.736;2022-12-18T13:35:52;34.40;;;17.38;;
44985;SDS011;30721;49.380;7.736;2022-12-18T13:38:22;29.77;;;15.45;;
44985;SDS011;30721;49.380;7.736;2022-12-18T13:45:45;34.95;;;17.83;;
44985;SDS011;30721;49.380;7.736;2022-12-18T13:48:17;34.03;;;16.88;;
44985;SDS011;30721;49.380;7.736;2022-12-18T13:50:48;35.08;;;17.25;;
44985;SDS011;30721;49.380;7.736;2022-12-18T13:53:26;37.33;;;17.55;;
44985;SDS011;30721;49.380;7.736;2022-12-18T13:55:53;36.17;;;18.23;;
44985;SDS011;30721;49.380;7.736;2022-12-18T13:58:20;41.35;;;20.48;;
44985;SDS011;30721;49.380;7.736;2022-12-18T14:00:45;43.17;;;17.58;;
44985;SDS011;30721;49.380;7.736;2022-12-18T14:03:18;34.35;;;17.35;;
44985;SDS011;30721;49.380;7.736;2022-12-18T14:05:45;33.17;;;16.73;;
44985;SDS011;30721;49.380;7.736;2022-12-18T14:08:17;33.65;;;17.13;;
44985;SDS011;30721;49.380;7.736;2022-12-18T14:10:43;33.85;;;16.52;;
44985;SDS011;30721;49.380;7.736;2022-12-18T14:13:10;38.50;;;18.70;;
44985;SDS011;30721;49.380;7.736;2022-12-18T14:15:46;33.20;;;16.10;;
44985;SDS011;30721;49.380;7.736;2022-12-18T14:20:45;37.17;;;17.48;;
44985;SDS011;30721;49.380;7.736;2022-12-18T14:23:25;42.33;;;17.50;;
44985;SDS011;30721;49.380;7.736;2022-12-18T14:25:52;37.53;;;17.27;;
44985;SDS011;30721;49.380;7.736;2022-12-18T14:28:17;36.63;;;17.50;;
44985;SDS011;30721;49.380;7.736;2022-12-18T14:30:44;39.15;;;18.90;;
44985;SDS011;30721;49.380;7.736;2022-12-18T14:33:11;33.30;;;15.82;;
44985;SDS011;30721;49.380;7.736;2022-12-18T14:35:57;37.45;;;17.30;;
44985;SDS011;30721;49.380;7.736;2022-12-18T14:41:05;36.72;;;18.55;;
44985;SDS011;30721;49.380;7.736;2022-12-18T14:43:32;44.45;;;19.83;;
44985;SDS011;30721;49.380;7.736;2022-12-18T14:45:59;41.60;;;18.58;;
44985;SDS011;30721;49.380;7.736;2022-12-18T14:51:01;53.08;;;23.15;;
44985;SDS011;30721;49.380;7.736;2022-12-18T14:59:15;49.72;;;23.00;;
44985;SDS011;30721;49.380;7.736;2022-12-18T15:01:46;40.60;;;17.67;;
44985;SDS011;30721;49.380;7.736;2022-12-18T15:09:36;32.72;;;14.77;;
44985;SDS011;30721;49.380;7.736;2022-12-18T15:12:02;40.63;;;19.50;;
44985;SDS011;30721;49.380;7.736;2022-12-18T15:17:05;40.70;;;19.25;;
44985;SDS011;30721;49.380;7.736;2022-12-18T15:19:39;33.88;;;15.57;;
44985;SDS011;30721;49.380;7.736;2022-12-18T15:24:56;53.25;;;21.95;;
44985;SDS011;30721;49.380;7.736;2022-12-18T15:27:23;52.08;;;21.13;;
44985;SDS011;30721;49.380;7.736;2022-12-18T15:32:33;63.28;;;28.38;;
44985;SDS011;30721;49.380;7.736;2022-12-18T15:35:07;56.00;;;25.23;;
44985;SDS011;30721;49.380;7.736;2022-12-18T15:37:39;53.50;;;23.48;;
44985;SDS011;30721;49.380;7.736;2022-12-18T15:40:05;47.72;;;21.58;;
44985;SDS011;30721;49.380;7.736;2022-12-18T15:42:31;37.40;;;18.27;;
44985;SDS011;30721;49.380;7.736;2022-12-18T15:45:15;33.08;;;17.15;;
44985;SDS011;30721;49.380;7.736;2022-12-18T15:47:41;35.65;;;16.95;;
44985;SDS011;30721;49.380;7.736;2022-12-18T15:50:09;32.95;;;17.50;;
44985;SDS011;30721;49.380;7.736;2022-12-18T15:52:38;30.80;;;16.15;;
44985;SDS011;30721;49.380;7.736;2022-12-18T15:55:08;30.27;;;16.63;;
44985;SDS011;30721;49.380;7.736;2022-12-18T15:57:56;37.80;;;18.17;;
44985;SDS011;30721;49.380;7.736;2022-12-18T16:00:22;40.15;;;18.27;;
44985;SDS011;30721;49.380;7.736;2022-12-18T16:02:47;44.42;;;20.77;;
44985;SDS011;30721;49.380;7.736;2022-12-18T16:05:13;31.02;;;13.63;;
44985;SDS011;30721;49.380;7.736;2022-12-18T16:07:40;25.13;;;12.05;;
44985;SDS011;30721;49.380;7.736;2022-12-18T16:10:05;22.65;;;10.63;;
44985;SDS011;30721;49.380;7.736;2022-12-18T16:12:31;26.10;;;11.00;;
44985;SDS011;30721;49.380;7.736;2022-12-18T16:14:56;21.10;;;10.48;;
44985;SDS011;30721;49.380;7.736;2022-12-18T16:17:22;22.73;;;9.82;;
44985;SDS011;30721;49.380;7.736;2022-12-18T16:19:47;23.27;;;9.65;;
44985;SDS011;30721;49.380;7.736;2022-12-18T16:22:16;24.95;;;10.35;;
44985;SDS011;30721;49.380;7.736;2022-12-18T16:24:44;21.92;;;10.43;;
44985;SDS011;30721;49.380;7.736;2022-12-18T16:27:10;25.75;;;11.30;;
44985;SDS011;30721;49.380;7.736;2022-12-18T16:29:36;25.13;;;11.40;;
44985;SDS011;30721;49.380;7.736;2022-12-18T16:32:01;19.85;;;9.07;;
44985;SDS011;30721;49.380;7.736;2022-12-18T16:34:32;22.35;;;9.88;;
44985;SDS011;30721;49.380;7.736;2022-12-18T16:37:03;23.63;;;10.13;;
44985;SDS011;30721;49.380;7.736;2022-12-18T16:39:31;23.48;;;10.80;;
44985;SDS011;30721;49.380;7.736;2022-12-18T16:41:58;25.88;;;10.32;;
44985;SDS011;30721;49.380;7.736;2022-12-18T16:44:24;24.60;;;10.00;;
44985;SDS011;30721;49.380;7.736;2022-12-18T16:46:49;27.95;;;10.80;;
44985;SDS011;30721;49.380;7.736;2022-12-18T16:49:15;23.95;;;11.23;;
44985;SDS011;30721;49.380;7.736;2022-12-18T16:51:41;25.02;;;9.98;;
44985;SDS011;30721;49.380;7.736;2022-12-18T16:54:06;25.27;;;11.07;;
44985;SDS011;30721;49.380;7.736;2022-12-18T16:56:32;26.65;;;13.60;;
44985;SDS011;30721;49.380;7.736;2022-12-18T16:58:58;28.80;;;12.45;;
44985;SDS011;30721;49.380;7.736;2022-12-18T17:01:25;33.15;;;15.90;;
44985;SDS011;30721;49.380;7.736;2022-12-18T17:03:52;26.75;;;14.88;;
44985;SDS011;30721;49.380;7.736;2022-12-18T17:06:18;35.67;;;15.85;;
44985;SDS011;30721;49.380;7.736;2022-12-18T17:08:43;35.40;;;17.60;;